createdAt,value
2019-02-17T00:00:45.741Z,78.90
2019-02-17T00:03:14.568Z,79.00
2019-02-17T00:05:43.405Z,79.30
2019-02-17T00:08:12.324Z,79.20
2019-02-17T00:10:41.148Z,79.20
2019-02-17T00:13:10.052Z,79.70
2019-02-17T00:15:38.902Z,79.00
2019-02-17T00:18:07.826Z,79.30
2019-02-17T00:20:36.656Z,79.20
2019-02-17T00:23:05.480Z,79.10
2019-02-17T00:25:34.325Z,79.30
2019-02-17T00:28:03.308Z,79.10
2019-02-17T00:30:32.219Z,79.20
2019-02-17T00:33:01.443Z,79.60
2019-02-17T00:35:30.299Z,79.80
2019-02-17T00:37:59.116Z,80.10
2019-02-17T00:40:28.016Z,80.80
2019-02-17T00:42:59.860Z,81.70
2019-02-17T00:45:28.687Z,81.60
2019-02-17T00:47:57.595Z,81.30
2019-02-17T00:50:26.440Z,81.00
2019-02-17T00:52:55.272Z,80.90
2019-02-17T00:55:24.098Z,81.00
2019-02-17T00:57:52.952Z,81.10
2019-02-17T01:00:21.854Z,81.80
2019-02-17T01:02:50.677Z,82.20
2019-02-17T01:05:19.878Z,82.20
2019-02-17T01:07:48.841Z,81.70
2019-02-17T01:10:17.673Z,81.70
2019-02-17T01:12:46.576Z,81.70
2019-02-17T01:15:15.416Z,81.90
2019-02-17T01:17:44.321Z,81.90
2019-02-17T01:20:13.300Z,82.30
2019-02-17T01:22:42.125Z,82.40
2019-02-17T01:25:11.707Z,82.60
2019-02-17T01:27:40.540Z,82.60
2019-02-17T01:30:12.294Z,82.50
2019-02-17T01:32:46.264Z,82.30
2019-02-17T01:35:15.164Z,82.30
2019-02-17T01:37:44.029Z,81.80
2019-02-17T01:40:13.673Z,81.40
2019-02-17T01:42:42.573Z,81.20
2019-02-17T01:45:11.555Z,81.10
2019-02-17T01:47:40.463Z,80.50
2019-02-17T01:50:09.489Z,80.00
2019-02-17T01:52:38.380Z,79.50
2019-02-17T01:55:07.335Z,79.50
2019-02-17T01:57:36.245Z,79.30
2019-02-17T02:00:06.293Z,79.10
2019-02-17T02:02:35.129Z,79.40
2019-02-17T02:05:04.873Z,80.30
2019-02-17T02:07:33.704Z,82.00
2019-02-17T02:10:02.621Z,83.00
2019-02-17T02:12:31.453Z,84.60
2019-02-17T02:15:00.350Z,86.60
2019-02-17T02:17:29.416Z,87.90
2019-02-17T02:19:58.325Z,88.60
2019-02-17T02:22:27.219Z,90.00
2019-02-17T02:24:56.142Z,90.60
2019-02-17T02:27:24.963Z,90.90
2019-02-17T02:29:53.792Z,91.30
2019-02-17T02:32:22.627Z,91.80
2019-02-17T02:34:51.460Z,92.40
2019-02-17T02:37:20.350Z,93.10
2019-02-17T02:39:49.215Z,92.90
2019-02-17T02:42:18.109Z,92.90
2019-02-17T02:44:48.640Z,93.30
2019-02-17T02:47:17.640Z,93.40
2019-02-17T02:49:46.470Z,94.30
2019-02-17T02:52:15.313Z,94.10
2019-02-17T02:54:44.211Z,93.30
2019-02-17T02:57:13.046Z,94.90
2019-02-17T02:59:51.930Z,94.80
2019-02-17T03:02:12.421Z,95.40
2019-02-17T03:04:41.247Z,95.80
2019-02-17T03:07:13.478Z,96.90
2019-02-17T03:09:42.304Z,97.00
2019-02-17T03:12:11.150Z,97.60
2019-02-17T03:14:39.977Z,98.10
2019-02-17T03:17:08.823Z,99.70
2019-02-17T03:19:37.660Z,99.90
2019-02-17T03:22:06.720Z,99.90
2019-02-17T03:24:35.561Z,99.90
2019-02-17T03:27:04.380Z,99.90
2019-02-17T03:29:33.652Z,99.90
2019-02-17T03:32:02.479Z,99.90
2019-02-17T03:34:31.329Z,99.90
2019-02-17T03:37:00.251Z,99.90
2019-02-17T03:39:29.088Z,99.90
2019-02-17T03:41:58.001Z,99.90
2019-02-17T03:44:26.853Z,99.90
2019-02-17T03:46:55.673Z,99.90
2019-02-17T03:49:24.590Z,99.90
2019-02-17T03:51:53.505Z,99.90
2019-02-17T03:54:22.355Z,99.90
2019-02-17T03:56:51.264Z,99.90
2019-02-17T03:59:20.086Z,99.90
2019-02-17T04:01:49.088Z,99.90
2019-02-17T04:04:17.922Z,99.90
2019-02-17T04:06:46.780Z,99.90
2019-02-17T04:09:15.794Z,99.90
2019-02-17T04:11:44.696Z,99.90
2019-02-17T04:14:13.560Z,99.90
2019-02-17T04:16:42.385Z,99.90
2019-02-17T04:19:11.232Z,99.90
2019-02-17T04:21:40.061Z,99.90
2019-02-17T04:24:09.097Z,99.90
2019-02-17T04:26:38.012Z,99.90
2019-02-17T04:29:06.840Z,99.90
2019-02-17T04:31:35.679Z,99.90
2019-02-17T04:34:04.580Z,99.90
2019-02-17T04:36:33.590Z,99.90
2019-02-17T04:39:02.489Z,99.90
2019-02-17T04:41:31.399Z,99.90
2019-02-17T04:44:00.237Z,99.90
2019-02-17T04:46:29.173Z,99.90
2019-02-17T04:48:58.079Z,99.90
2019-02-17T04:51:26.903Z,99.90
2019-02-17T04:53:55.754Z,99.90
2019-02-17T04:56:24.602Z,99.90
2019-02-17T04:58:53.453Z,99.90
2019-02-17T05:01:22.351Z,99.90
2019-02-17T05:03:51.249Z,99.90
2019-02-17T05:06:20.164Z,99.90
2019-02-17T05:08:48.988Z,99.90
2019-02-17T05:11:17.978Z,99.90
2019-02-17T05:13:46.876Z,99.90
2019-02-17T05:16:15.725Z,99.90
2019-02-17T05:18:44.566Z,99.90
2019-02-17T05:21:13.490Z,99.90
2019-02-17T05:23:42.334Z,99.90
2019-02-17T05:26:11.153Z,99.90
2019-02-17T05:28:40.012Z,99.90
2019-02-17T05:31:08.833Z,99.90
2019-02-17T05:33:37.679Z,99.90
2019-02-17T05:36:06.517Z,99.90
2019-02-17T05:38:35.453Z,99.90
2019-02-17T05:41:04.356Z,99.90
2019-02-17T05:43:33.298Z,99.90
2019-02-17T05:46:02.141Z,99.90
2019-02-17T05:48:30.972Z,99.90
2019-02-17T05:50:59.800Z,99.90
2019-02-17T05:53:28.640Z,99.90
2019-02-17T05:55:57.478Z,99.90
2019-02-17T05:58:26.413Z,99.90
2019-02-17T06:01:03.412Z,99.90
2019-02-17T06:03:25.862Z,99.90
2019-02-17T06:05:54.722Z,99.90
2019-02-17T06:08:23.553Z,99.90
2019-02-17T06:10:52.418Z,99.90
2019-02-17T06:13:21.254Z,99.90
2019-02-17T06:15:50.117Z,99.90
2019-02-17T06:18:18.971Z,99.90
2019-02-17T06:20:47.805Z,99.90
2019-02-17T06:23:16.676Z,99.90
2019-02-17T06:25:45.504Z,99.90
2019-02-17T06:28:14.353Z,99.90
2019-02-17T06:30:43.196Z,99.90
2019-02-17T06:33:12.047Z,99.40
2019-02-17T06:35:40.882Z,99.00
2019-02-17T06:38:09.725Z,98.50
2019-02-17T06:40:38.575Z,98.00
2019-02-17T06:43:07.669Z,97.70
2019-02-17T06:45:36.602Z,97.20
2019-02-17T06:48:05.501Z,96.50
2019-02-17T06:50:34.338Z,95.80
2019-02-17T06:53:03.181Z,95.60
2019-02-17T06:55:36.788Z,95.10
2019-02-17T06:58:05.620Z,93.90
2019-02-17T07:00:37.321Z,93.10
2019-02-17T07:03:06.255Z,92.40
2019-02-17T07:05:52.777Z,91.70
2019-02-17T07:08:21.666Z,91.10
2019-02-17T07:10:50.608Z,90.60
2019-02-17T07:13:19.505Z,90.10
2019-02-17T07:15:48.337Z,88.50
2019-02-17T07:18:17.248Z,87.50
2019-02-17T07:20:46.092Z,84.60
2019-02-17T07:23:15.414Z,83.30
2019-02-17T07:25:44.518Z,82.00
2019-02-17T07:28:13.474Z,80.80
2019-02-17T07:30:42.309Z,79.10
2019-02-17T07:33:11.220Z,78.60
2019-02-17T07:35:40.037Z,77.30
2019-02-17T07:38:08.881Z,76.20
2019-02-17T07:40:38.609Z,74.60
2019-02-17T07:43:07.433Z,73.40
2019-02-17T07:45:36.278Z,72.40
2019-02-17T07:48:05.193Z,72.10
2019-02-17T07:50:34.134Z,72.10
2019-02-17T07:53:03.076Z,70.10
2019-02-17T07:55:31.919Z,69.30
2019-02-17T07:58:00.749Z,68.20
2019-02-17T08:00:29.662Z,67.60
2019-02-17T08:02:58.532Z,66.70
2019-02-17T08:05:27.473Z,65.60
2019-02-17T08:07:56.446Z,64.40
2019-02-17T08:10:25.353Z,63.30
2019-02-17T08:12:54.305Z,61.90
2019-02-17T08:15:23.149Z,60.90
2019-02-17T08:17:52.078Z,60.30
2019-02-17T08:20:20.980Z,60.40
2019-02-17T08:22:49.857Z,59.00
2019-02-17T08:25:21.770Z,58.40
2019-02-17T08:27:49.245Z,58.10
2019-02-17T08:30:18.244Z,58.10
2019-02-17T08:32:50.302Z,56.90
2019-02-17T08:35:19.170Z,56.50
2019-02-17T08:37:48.197Z,56.00
2019-02-17T08:40:17.133Z,55.30
2019-02-17T08:42:45.957Z,54.60
2019-02-17T08:45:14.800Z,53.70
2019-02-17T08:47:43.713Z,52.90
2019-02-17T08:50:12.629Z,52.60
2019-02-17T08:52:41.456Z,52.20
2019-02-17T08:55:10.481Z,51.70
2019-02-17T08:57:42.625Z,51.30
2019-02-17T09:00:12.418Z,51.60
2019-02-17T09:02:41.256Z,51.20
2019-02-17T09:05:10.229Z,51.10
2019-02-17T09:07:39.169Z,50.80
2019-02-17T09:10:09.830Z,50.50
2019-02-17T09:12:38.853Z,50.10
2019-02-17T09:15:09.330Z,50.00
2019-02-17T09:17:38.256Z,49.40
2019-02-17T09:20:08.170Z,49.30
2019-02-17T09:22:37.019Z,49.10
2019-02-17T09:25:07.046Z,48.70
2019-02-17T09:27:35.958Z,48.30
2019-02-17T09:30:08.017Z,48.00
2019-02-17T09:32:36.865Z,47.50
2019-02-17T09:35:05.872Z,47.30
2019-02-17T09:37:34.721Z,47.00
2019-02-17T09:40:04.005Z,46.20
2019-02-17T09:42:32.865Z,46.20
2019-02-17T09:45:01.856Z,46.50
2019-02-17T09:47:30.697Z,45.70
2019-02-17T09:49:59.557Z,44.90
2019-02-17T09:52:28.448Z,43.60
2019-02-17T09:54:57.310Z,43.20
2019-02-17T09:57:26.301Z,43.00
2019-02-17T09:59:55.140Z,43.10
2019-02-17T10:02:26.529Z,42.30
2019-02-17T10:04:54.606Z,42.30
2019-02-17T10:07:23.531Z,42.10
2019-02-17T10:09:52.398Z,42.00
2019-02-17T10:12:21.364Z,41.70
2019-02-17T10:14:50.205Z,41.20
2019-02-17T10:17:19.134Z,41.00
2019-02-17T10:19:47.985Z,41.00
2019-02-17T10:22:16.886Z,40.60
2019-02-17T10:24:45.877Z,39.80
2019-02-17T10:27:15.215Z,39.80
2019-02-17T10:29:44.069Z,39.40
2019-02-17T10:32:12.925Z,39.20
2019-02-17T10:34:41.818Z,38.70
2019-02-17T10:37:12.581Z,38.50
2019-02-17T10:39:41.474Z,38.90
2019-02-17T10:42:11.724Z,38.10
2019-02-17T10:44:40.680Z,37.50
2019-02-17T10:47:09.793Z,37.30
2019-02-17T10:49:41.067Z,37.70
2019-02-17T10:52:11.468Z,37.30
2019-02-17T10:54:40.322Z,36.10
2019-02-17T10:57:09.345Z,36.10
2019-02-17T10:59:38.327Z,34.60
2019-02-17T11:02:07.270Z,35.20
2019-02-17T11:04:36.583Z,35.20
2019-02-17T11:07:05.701Z,34.30
2019-02-17T11:09:35.423Z,34.80
2019-02-17T11:12:04.529Z,34.00
2019-02-17T11:14:37.836Z,33.80
2019-02-17T11:17:06.830Z,34.70
2019-02-17T11:19:35.816Z,33.40
2019-02-17T11:22:08.400Z,33.00
2019-02-17T11:24:37.380Z,32.20
2019-02-17T11:27:06.317Z,32.20
2019-02-17T11:29:35.292Z,32.70
2019-02-17T11:32:04.344Z,31.40
2019-02-17T11:34:33.285Z,31.70
2019-02-17T11:37:02.252Z,30.60
2019-02-17T11:39:31.107Z,29.80
2019-02-17T11:42:00.005Z,29.50
2019-02-17T11:44:29.027Z,29.40
2019-02-17T11:46:57.865Z,28.80
2019-02-17T11:49:26.721Z,29.40
2019-02-17T11:51:55.580Z,32.50
2019-02-17T11:54:24.397Z,31.20
2019-02-17T11:56:53.257Z,29.90
2019-02-17T11:59:22.105Z,30.00
2019-02-17T12:01:51.100Z,32.60
2019-02-17T12:04:20.022Z,31.00
2019-02-17T12:06:48.955Z,32.20
2019-02-17T12:09:17.962Z,32.50
2019-02-17T12:11:46.813Z,33.10
2019-02-17T12:14:15.757Z,32.00
2019-02-17T12:16:44.594Z,31.30
2019-02-17T12:19:13.574Z,31.80
2019-02-17T12:21:59.062Z,31.80
2019-02-17T12:24:32.674Z,32.00
2019-02-17T12:27:06.369Z,31.90
2019-02-17T12:29:44.171Z,31.60
2019-02-17T12:32:13.078Z,30.90
2019-02-17T12:34:41.922Z,30.80
2019-02-17T12:37:10.757Z,30.20
2019-02-17T12:39:39.692Z,30.30
2019-02-17T12:42:08.545Z,30.30
2019-02-17T12:44:37.397Z,30.90
2019-02-17T12:47:06.390Z,30.00
2019-02-17T12:49:35.314Z,31.00
2019-02-17T12:52:04.341Z,30.00
2019-02-17T12:54:33.184Z,29.50
2019-02-17T12:57:02.095Z,29.70
2019-02-17T12:59:31.075Z,29.80
2019-02-17T13:01:59.929Z,30.10
2019-02-17T13:04:28.834Z,30.00
2019-02-17T13:06:57.675Z,31.40
2019-02-17T13:09:26.520Z,29.80
2019-02-17T13:11:55.362Z,28.90
2019-02-17T13:14:24.200Z,28.80
2019-02-17T13:16:53.120Z,29.30
2019-02-17T13:19:22.029Z,29.70
2019-02-17T13:21:50.857Z,30.20
2019-02-17T13:24:19.777Z,28.90
2019-02-17T13:26:48.629Z,29.10
2019-02-17T13:29:17.658Z,30.00
2019-02-17T13:31:46.504Z,30.30
2019-02-17T13:34:15.340Z,29.00
2019-02-17T13:36:44.177Z,28.90
2019-02-17T13:39:13.038Z,28.30
2019-02-17T13:41:41.990Z,28.30
2019-02-17T13:44:10.952Z,29.00
2019-02-17T13:46:39.789Z,29.50
2019-02-17T13:49:08.643Z,29.00
2019-02-17T13:51:37.489Z,28.90
2019-02-17T13:54:06.479Z,29.30
2019-02-17T13:56:35.454Z,29.70
2019-02-17T13:59:04.362Z,29.10
2019-02-17T14:01:33.220Z,29.00
2019-02-17T14:04:02.072Z,28.80
2019-02-17T14:06:30.992Z,29.00
2019-02-17T14:09:00.256Z,29.00
2019-02-17T14:11:29.185Z,29.30
2019-02-17T14:13:58.049Z,29.40
2019-02-17T14:16:26.898Z,29.40
2019-02-17T14:18:55.740Z,29.80
2019-02-17T14:21:24.741Z,28.50
2019-02-17T14:23:53.646Z,29.10
2019-02-17T14:26:22.629Z,29.60
2019-02-17T14:28:51.812Z,29.90
2019-02-17T14:31:20.636Z,29.30
2019-02-17T14:33:58.292Z,30.70
2019-02-17T14:36:20.184Z,30.00
2019-02-17T14:38:49.032Z,29.40
2019-02-17T14:41:17.944Z,29.30
2019-02-17T14:43:46.864Z,29.80
2019-02-17T14:46:16.318Z,29.70
2019-02-17T14:48:45.586Z,30.10
2019-02-17T14:51:22.366Z,29.80
2019-02-17T14:53:51.547Z,29.80
2019-02-17T14:56:20.593Z,30.20
2019-02-17T14:58:49.575Z,30.40
2019-02-17T15:01:18.598Z,30.70
2019-02-17T15:03:50.832Z,31.20
2019-02-17T15:06:39.213Z,31.20
2019-02-17T15:09:08.681Z,31.60
2019-02-17T15:11:38.126Z,31.80
2019-02-17T15:14:08.685Z,31.70
2019-02-17T15:16:37.722Z,31.00
2019-02-17T15:19:06.615Z,30.80
2019-02-17T15:21:35.981Z,31.20
2019-02-17T15:24:04.985Z,31.50
2019-02-17T15:26:33.844Z,31.60
2019-02-17T15:29:02.656Z,32.20
2019-02-17T15:31:31.600Z,32.70
2019-02-17T15:34:00.557Z,32.60
2019-02-17T15:36:29.569Z,33.00
2019-02-17T15:38:58.405Z,33.40
2019-02-17T15:41:29.203Z,33.60
2019-02-17T15:43:58.029Z,34.30
2019-02-17T15:46:26.950Z,34.00
2019-02-17T15:48:55.830Z,34.40
2019-02-17T15:51:24.722Z,34.10
2019-02-17T15:53:53.592Z,33.40
2019-02-17T15:56:22.496Z,31.10
2019-02-17T15:58:51.358Z,31.60
2019-02-17T16:01:20.224Z,31.80
2019-02-17T16:03:49.092Z,32.00
2019-02-17T16:06:18.001Z,32.60
2019-02-17T16:08:46.933Z,33.20
2019-02-17T16:11:15.785Z,33.70
2019-02-17T16:13:44.732Z,34.30
2019-02-17T16:16:13.633Z,34.90
2019-02-17T16:18:42.468Z,34.60
2019-02-17T16:21:11.485Z,35.00
2019-02-17T16:23:40.329Z,35.00
2019-02-17T16:26:09.157Z,35.20
2019-02-17T16:28:37.996Z,35.30
2019-02-17T16:31:06.985Z,35.90
2019-02-17T16:33:35.809Z,35.60
2019-02-17T16:36:04.733Z,36.20
2019-02-17T16:38:33.640Z,36.30
2019-02-17T16:41:02.520Z,36.50
2019-02-17T16:43:31.372Z,36.80
2019-02-17T16:46:00.237Z,37.10
2019-02-17T16:48:29.169Z,37.10
2019-02-17T16:50:58.012Z,37.50
2019-02-17T16:53:30.305Z,37.60
2019-02-17T16:55:59.204Z,37.90
2019-02-17T16:58:28.128Z,39.10
2019-02-17T17:00:57.122Z,39.70
2019-02-17T17:03:27.887Z,40.10
2019-02-17T17:05:56.947Z,40.30
2019-02-17T17:08:26.230Z,40.40
2019-02-17T17:10:56.633Z,40.90
2019-02-17T17:13:29.133Z,41.30
2019-02-17T17:16:05.268Z,42.10
2019-02-17T17:18:36.535Z,42.60
2019-02-17T17:21:23.208Z,43.10
2019-02-17T17:23:53.699Z,43.50
2019-02-17T17:26:22.792Z,43.80
2019-02-17T17:28:52.389Z,44.50
2019-02-17T17:31:22.291Z,45.20
2019-02-17T17:33:53.855Z,45.60
2019-02-17T17:36:23.010Z,45.70
2019-02-17T17:38:55.618Z,46.70
2019-02-17T17:41:29.925Z,46.90
2019-02-17T17:43:59.411Z,47.40
2019-02-17T17:46:32.898Z,47.90
2019-02-17T17:49:19.049Z,48.60
2019-02-17T17:51:45.445Z,49.00
2019-02-17T17:54:20.236Z,49.00
2019-02-17T17:56:52.311Z,50.40
2019-02-17T17:59:24.774Z,50.10
2019-02-17T18:01:57.597Z,50.70
2019-02-17T18:04:27.842Z,51.20
2019-02-17T18:06:57.265Z,51.80
2019-02-17T18:09:26.501Z,53.20
2019-02-17T18:11:55.715Z,53.70
2019-02-17T18:14:55.255Z,53.40
2019-02-17T18:17:14.606Z,52.80
2019-02-17T18:19:43.642Z,53.10
2019-02-17T18:22:14.290Z,53.50
2019-02-17T18:24:44.910Z,54.80
2019-02-17T18:27:14.136Z,54.60
2019-02-17T18:29:43.313Z,54.00
2019-02-17T18:32:14.187Z,53.30
2019-02-17T18:34:43.447Z,53.60
2019-02-17T18:37:13.353Z,54.30
2019-02-17T18:39:42.477Z,55.10
2019-02-17T18:42:11.617Z,54.50
2019-02-17T18:44:42.090Z,54.30
2019-02-17T18:47:11.402Z,54.00
2019-02-17T18:49:41.925Z,53.80
2019-02-17T18:52:18.405Z,54.30
2019-02-17T18:54:49.020Z,53.90
2019-02-17T18:57:18.762Z,54.00
2019-02-17T18:59:50.930Z,54.40
2019-02-17T19:02:21.682Z,54.80
2019-02-17T19:04:50.958Z,54.90
2019-02-17T19:07:20.115Z,55.20
2019-02-17T19:09:49.315Z,55.60
2019-02-17T19:12:18.988Z,56.00
2019-02-17T19:14:48.067Z,56.30
2019-02-17T19:17:17.267Z,56.50
2019-02-17T19:19:46.430Z,56.90
2019-02-17T19:22:15.374Z,56.80
2019-02-17T19:24:44.554Z,56.80
2019-02-17T19:27:13.732Z,56.90
2019-02-17T19:29:43.367Z,57.00
2019-02-17T19:32:12.527Z,56.90
2019-02-17T19:34:41.892Z,57.60
2019-02-17T19:37:11.189Z,58.70
2019-02-17T19:39:40.250Z,59.20
2019-02-17T19:42:09.495Z,60.30
2019-02-17T19:44:38.750Z,61.00
2019-02-17T19:47:09.655Z,61.70
2019-02-17T19:49:39.364Z,63.20
2019-02-17T19:52:08.727Z,64.00
2019-02-17T19:54:38.071Z,64.50
2019-02-17T19:57:07.340Z,64.70
2019-02-17T19:59:36.462Z,65.30
2019-02-17T20:02:05.911Z,65.80
2019-02-17T20:04:42.002Z,66.80
2019-02-17T20:07:15.598Z,68.20
2019-02-17T20:09:44.754Z,69.80
2019-02-17T20:12:14.771Z,71.00
2019-02-17T20:14:43.910Z,72.60
2019-02-17T20:17:15.923Z,73.40
2019-02-17T20:19:45.075Z,73.70
2019-02-17T20:22:16.742Z,74.80
2019-02-17T20:24:48.789Z,74.90
2019-02-17T20:27:18.966Z,75.20
2019-02-17T20:29:48.048Z,77.30
2019-02-17T20:32:19.863Z,75.10
2019-02-17T20:34:48.963Z,75.60
2019-02-17T20:37:18.044Z,74.40
2019-02-17T20:39:47.393Z,74.60
2019-02-17T20:42:17.319Z,77.50
2019-02-17T20:44:50.315Z,75.70
2019-02-17T20:47:19.829Z,76.70
2019-02-17T20:49:49.375Z,77.20
2019-02-17T20:52:18.779Z,77.70
2019-02-17T20:54:47.919Z,77.80
2019-02-17T20:57:17.095Z,78.30
2019-02-17T20:59:46.258Z,79.30
2019-02-17T21:02:15.217Z,80.70
2019-02-17T21:04:44.795Z,80.50
2019-02-17T21:07:16.294Z,81.80
2019-02-17T21:09:47.953Z,83.60
2019-02-17T21:12:17.182Z,83.60
2019-02-17T21:14:46.809Z,83.30
2019-02-17T21:17:15.969Z,83.30
2019-02-17T21:19:45.423Z,83.40
2019-02-17T21:22:14.572Z,83.20
2019-02-17T21:24:52.723Z,83.40
2019-02-17T21:27:34.068Z,84.30
2019-02-17T21:30:04.473Z,84.40
2019-02-17T21:32:33.838Z,84.30
2019-02-17T21:35:04.475Z,84.80
2019-02-17T21:37:35.115Z,84.80
2019-02-17T21:40:05.802Z,84.60
2019-02-17T21:42:39.963Z,83.30
2019-02-17T21:45:11.350Z,83.00
2019-02-17T21:47:45.911Z,82.70
2019-02-17T21:50:30.910Z,83.00
2019-02-17T21:53:00.254Z,83.10
2019-02-17T21:55:32.155Z,82.90
2019-02-17T21:58:05.215Z,82.50
2019-02-17T22:00:34.291Z,82.20
2019-02-17T22:03:03.680Z,82.00
2019-02-17T22:05:34.317Z,82.00
2019-02-17T22:08:03.326Z,82.50
2019-02-17T22:10:37.013Z,82.60
2019-02-17T22:13:07.773Z,82.40
2019-02-17T22:15:44.020Z,82.30
2019-02-17T22:18:13.166Z,82.80
2019-02-17T22:21:05.530Z,82.70
2019-02-17T22:23:27.349Z,82.70
2019-02-17T22:26:00.709Z,83.00
2019-02-17T22:28:29.969Z,83.20
2019-02-17T22:30:59.227Z,83.50
2019-02-17T22:33:28.368Z,83.30
2019-02-17T22:35:57.385Z,83.30
2019-02-17T22:38:26.419Z,83.10
2019-02-17T22:40:55.282Z,84.90
2019-02-17T22:43:24.274Z,86.20
2019-02-17T22:45:53.169Z,84.70
2019-02-17T22:48:22.102Z,83.90
2019-02-17T22:50:51.023Z,83.30
2019-02-17T22:53:19.957Z,82.70
2019-02-17T22:55:50.935Z,82.80
2019-02-17T22:58:19.821Z,83.50
2019-02-17T23:00:58.410Z,82.80
2019-02-17T23:03:28.368Z,83.30
2019-02-17T23:05:57.413Z,83.90
2019-02-17T23:08:34.055Z,84.50
2019-02-17T23:11:03.312Z,84.90
2019-02-17T23:13:32.166Z,84.20
2019-02-17T23:16:01.141Z,84.40
2019-02-17T23:18:39.662Z,84.10
2019-02-17T23:21:13.253Z,83.30
2019-02-17T23:23:44.145Z,83.40
2019-02-17T23:26:13.192Z,83.20
2019-02-17T23:28:45.305Z,83.50
2019-02-17T23:31:14.280Z,84.00
2019-02-17T23:33:51.768Z,84.20
2019-02-17T23:36:20.790Z,84.50
2019-02-17T23:50:55.469Z,84.20
2019-02-17T23:53:24.289Z,85.50
2019-02-17T23:55:53.191Z,85.60
2019-02-17T23:58:22.084Z,85.80
